sensor_id;sensor_type;location;lat;lon;timestamp;P1;durP1;ratioP1;P2;durP2;ratioP2
3541;SDS011;1785;47.388;8.538;2022-08-19T00:01:11;9.60;;;8.70;;
3541;SDS011;1785;47.388;8.538;2022-08-19T00:03:37;11.20;;;9.10;;
3541;SDS011;1785;47.388;8.538;2022-08-19T00:06:03;10.20;;;9.30;;
3541;SDS011;1785;47.388;8.538;2022-08-19T00:08:31;8.53;;;7.73;;
3541;SDS011;1785;47.388;8.538;2022-08-19T00:10:57;9.07;;;8.27;;
3541;SDS011;1785;47.388;8.538;2022-08-19T00:13:24;8.40;;;7.67;;
3541;SDS011;1785;47.388;8.538;2022-08-19T00:15:50;8.97;;;8.17;;
3541;SDS011;1785;47.388;8.538;2022-08-19T00:18:16;8.47;;;7.87;;
3541;SDS011;1785;47.388;8.538;2022-08-19T00:20:43;10.43;;;9.10;;
3541;SDS011;1785;47.388;8.538;2022-08-19T00:23:09;10.30;;;9.40;;
3541;SDS011;1785;47.388;8.538;2022-08-19T00:25:36;8.23;;;7.57;;
3541;SDS011;1785;47.388;8.538;2022-08-19T00:28:02;9.80;;;8.80;;
3541;SDS011;1785;47.388;8.538;2022-08-19T00:30:29;8.63;;;7.83;;
3541;SDS011;1785;47.388;8.538;2022-08-19T00:32:56;8.80;;;8.03;;
3541;SDS011;1785;47.388;8.538;2022-08-19T00:35:23;9.93;;;9.03;;
3541;SDS011;1785;47.388;8.538;2022-08-19T00:37:49;10.90;;;9.80;;
3541;SDS011;1785;47.388;8.538;2022-08-19T00:40:16;9.13;;;8.30;;
3541;SDS011;1785;47.388;8.538;2022-08-19T00:42:43;9.17;;;8.37;;
3541;SDS011;1785;47.388;8.538;2022-08-19T00:45:11;10.90;;;9.90;;
3541;SDS011;1785;47.388;8.538;2022-08-19T00:47:42;11.23;;;10.13;;
3541;SDS011;1785;47.388;8.538;2022-08-19T00:50:09;10.40;;;9.50;;
3541;SDS011;1785;47.388;8.538;2022-08-19T00:52:38;11.70;;;10.60;;
3541;SDS011;1785;47.388;8.538;2022-08-19T00:55:07;10.77;;;9.80;;
3541;SDS011;1785;47.388;8.538;2022-08-19T00:57:38;11.87;;;10.77;;
3541;SDS011;1785;47.388;8.538;2022-08-19T01:00:10;11.53;;;10.53;;
3541;SDS011;1785;47.388;8.538;2022-08-19T01:02:39;13.40;;;12.20;;
3541;SDS011;1785;47.388;8.538;2022-08-19T01:05:09;11.10;;;10.10;;
3541;SDS011;1785;47.388;8.538;2022-08-19T01:07:38;11.27;;;10.30;;
3541;SDS011;1785;47.388;8.538;2022-08-19T01:10:06;11.63;;;10.60;;
3541;SDS011;1785;47.388;8.538;2022-08-19T01:12:35;11.80;;;10.60;;
3541;SDS011;1785;47.388;8.538;2022-08-19T01:15:02;12.43;;;10.97;;
3541;SDS011;1785;47.388;8.538;2022-08-19T01:17:29;11.80;;;10.70;;
3541;SDS011;1785;47.388;8.538;2022-08-19T01:19:56;11.73;;;10.60;;
3541;SDS011;1785;47.388;8.538;2022-08-19T01:22:27;12.80;;;11.50;;
3541;SDS011;1785;47.388;8.538;2022-08-19T01:24:56;12.10;;;10.90;;
3541;SDS011;1785;47.388;8.538;2022-08-19T01:27:22;12.57;;;11.37;;
3541;SDS011;1785;47.388;8.538;2022-08-19T01:29:48;12.73;;;11.53;;
3541;SDS011;1785;47.388;8.538;2022-08-19T01:32:15;12.40;;;11.23;;
3541;SDS011;1785;47.388;8.538;2022-08-19T01:34:44;13.27;;;12.07;;
3541;SDS011;1785;47.388;8.538;2022-08-19T01:37:12;12.10;;;11.00;;
3541;SDS011;1785;47.388;8.538;2022-08-19T01:39:40;13.37;;;12.07;;
3541;SDS011;1785;47.388;8.538;2022-08-19T01:42:08;13.50;;;12.20;;
3541;SDS011;1785;47.388;8.538;2022-08-19T01:44:37;13.30;;;12.00;;
3541;SDS011;1785;47.388;8.538;2022-08-19T01:47:05;15.80;;;14.20;;
3541;SDS011;1785;47.388;8.538;2022-08-19T01:49:31;14.60;;;13.20;;
3541;SDS011;1785;47.388;8.538;2022-08-19T01:51:58;14.23;;;12.90;;
3541;SDS011;1785;47.388;8.538;2022-08-19T01:54:25;13.90;;;12.50;;
3541;SDS011;1785;47.388;8.538;2022-08-19T01:56:56;14.80;;;13.40;;
3541;SDS011;1785;47.388;8.538;2022-08-19T01:59:25;14.67;;;13.23;;
3541;SDS011;1785;47.388;8.538;2022-08-19T02:01:53;15.30;;;13.80;;
3541;SDS011;1785;47.388;8.538;2022-08-19T02:04:19;16.27;;;14.67;;
3541;SDS011;1785;47.388;8.538;2022-08-19T02:06:46;16.00;;;14.50;;
3541;SDS011;1785;47.388;8.538;2022-08-19T02:09:13;15.03;;;13.57;;
3541;SDS011;1785;47.388;8.538;2022-08-19T02:11:39;15.47;;;14.07;;
3541;SDS011;1785;47.388;8.538;2022-08-19T02:14:08;17.57;;;15.87;;
3541;SDS011;1785;47.388;8.538;2022-08-19T02:16:34;14.67;;;13.27;;
3541;SDS011;1785;47.388;8.538;2022-08-19T02:19:02;15.63;;;14.02;;
3541;SDS011;1785;47.388;8.538;2022-08-19T02:21:29;16.27;;;14.67;;
3541;SDS011;1785;47.388;8.538;2022-08-19T02:23:56;19.27;;;15.13;;
3541;SDS011;1785;47.388;8.538;2022-08-19T02:26:23;16.73;;;15.03;;
3541;SDS011;1785;47.388;8.538;2022-08-19T02:28:51;15.27;;;13.87;;
3541;SDS011;1785;47.388;8.538;2022-08-19T02:31:19;14.50;;;13.00;;
3541;SDS011;1785;47.388;8.538;2022-08-19T02:33:48;16.07;;;14.40;;
3541;SDS011;1785;47.388;8.538;2022-08-19T02:36:15;14.17;;;12.77;;
3541;SDS011;1785;47.388;8.538;2022-08-19T02:38:44;17.03;;;15.27;;
3541;SDS011;1785;47.388;8.538;2022-08-19T02:41:11;17.07;;;15.40;;
3541;SDS011;1785;47.388;8.538;2022-08-19T02:43:39;15.10;;;13.70;;
3541;SDS011;1785;47.388;8.538;2022-08-19T02:46:11;16.30;;;14.67;;
3541;SDS011;1785;47.388;8.538;2022-08-19T02:48:38;17.27;;;15.67;;
3541;SDS011;1785;47.388;8.538;2022-08-19T02:51:05;17.60;;;15.90;;
3541;SDS011;1785;47.388;8.538;2022-08-19T02:53:31;18.17;;;16.37;;
3541;SDS011;1785;47.388;8.538;2022-08-19T02:55:57;16.30;;;14.80;;
3541;SDS011;1785;47.388;8.538;2022-08-19T02:58:23;15.53;;;13.93;;
3541;SDS011;1785;47.388;8.538;2022-08-19T03:00:52;16.87;;;14.97;;
3541;SDS011;1785;47.388;8.538;2022-08-19T03:03:20;16.60;;;14.87;;
3541;SDS011;1785;47.388;8.538;2022-08-19T03:05:48;18.40;;;15.40;;
3541;SDS011;1785;47.388;8.538;2022-08-19T03:08:14;18.17;;;16.27;;
3541;SDS011;1785;47.388;8.538;2022-08-19T03:10:42;19.10;;;16.13;;
3541;SDS011;1785;47.388;8.538;2022-08-19T03:13:10;17.93;;;15.90;;
3541;SDS011;1785;47.388;8.538;2022-08-19T03:15:39;18.40;;;16.50;;
3541;SDS011;1785;47.388;8.538;2022-08-19T03:18:07;17.70;;;15.93;;
3541;SDS011;1785;47.388;8.538;2022-08-19T03:20:34;17.17;;;15.53;;
3541;SDS011;1785;47.388;8.538;2022-08-19T03:23:07;17.00;;;15.37;;
3541;SDS011;1785;47.388;8.538;2022-08-19T03:25:35;15.83;;;14.27;;
3541;SDS011;1785;47.388;8.538;2022-08-19T03:28:03;17.17;;;15.43;;
3541;SDS011;1785;47.388;8.538;2022-08-19T03:30:29;15.50;;;13.83;;
3541;SDS011;1785;47.388;8.538;2022-08-19T03:32:55;16.60;;;14.50;;
3541;SDS011;1785;47.388;8.538;2022-08-19T03:35:22;17.10;;;15.30;;
3541;SDS011;1785;47.388;8.538;2022-08-19T03:37:48;15.40;;;13.90;;
3541;SDS011;1785;47.388;8.538;2022-08-19T03:40:15;17.03;;;15.00;;
3541;SDS011;1785;47.388;8.538;2022-08-19T03:42:43;19.40;;;17.50;;
3541;SDS011;1785;47.388;8.538;2022-08-19T03:45:11;14.67;;;12.60;;
3541;SDS011;1785;47.388;8.538;2022-08-19T03:47:37;19.63;;;16.80;;
3541;SDS011;1785;47.388;8.538;2022-08-19T03:50:04;15.00;;;13.40;;
3541;SDS011;1785;47.388;8.538;2022-08-19T03:52:30;13.63;;;12.30;;
3541;SDS011;1785;47.388;8.538;2022-08-19T03:54:57;16.10;;;14.50;;
3541;SDS011;1785;47.388;8.538;2022-08-19T03:57:24;19.77;;;17.50;;
3541;SDS011;1785;47.388;8.538;2022-08-19T03:59:50;18.30;;;16.50;;
3541;SDS011;1785;47.388;8.538;2022-08-19T04:02:16;18.93;;;16.93;;
3541;SDS011;1785;47.388;8.538;2022-08-19T04:04:43;20.17;;;17.97;;
3541;SDS011;1785;47.388;8.538;2022-08-19T04:07:10;21.30;;;19.00;;
3541;SDS011;1785;47.388;8.538;2022-08-19T04:09:40;20.93;;;18.67;;
3541;SDS011;1785;47.388;8.538;2022-08-19T04:12:06;24.00;;;21.50;;
3541;SDS011;1785;47.388;8.538;2022-08-19T04:14:34;21.70;;;19.40;;
3541;SDS011;1785;47.388;8.538;2022-08-19T04:17:01;24.27;;;21.90;;
3541;SDS011;1785;47.388;8.538;2022-08-19T04:19:29;25.90;;;22.73;;
3541;SDS011;1785;47.388;8.538;2022-08-19T04:21:56;25.93;;;22.50;;
3541;SDS011;1785;47.388;8.538;2022-08-19T04:24:23;26.23;;;22.37;;
3541;SDS011;1785;47.388;8.538;2022-08-19T04:26:50;24.97;;;21.67;;
3541;SDS011;1785;47.388;8.538;2022-08-19T04:29:17;26.27;;;22.43;;
3541;SDS011;1785;47.388;8.538;2022-08-19T04:31:47;26.30;;;23.50;;
3541;SDS011;1785;47.388;8.538;2022-08-19T04:34:15;28.55;;;24.02;;
3541;SDS011;1785;47.388;8.538;2022-08-19T04:36:47;27.57;;;23.50;;
3541;SDS011;1785;47.388;8.538;2022-08-19T04:39:16;29.23;;;24.63;;
3541;SDS011;1785;47.388;8.538;2022-08-19T04:41:46;25.50;;;21.80;;
3541;SDS011;1785;47.388;8.538;2022-08-19T04:44:30;26.13;;;22.37;;
3541;SDS011;1785;47.388;8.538;2022-08-19T04:46:58;25.80;;;20.93;;
3541;SDS011;1785;47.388;8.538;2022-08-19T04:49:25;24.60;;;22.00;;
3541;SDS011;1785;47.388;8.538;2022-08-19T04:51:52;28.50;;;22.90;;
3541;SDS011;1785;47.388;8.538;2022-08-19T04:54:20;29.13;;;23.47;;
3541;SDS011;1785;47.388;8.538;2022-08-19T04:56:47;25.63;;;22.40;;
3541;SDS011;1785;47.388;8.538;2022-08-19T04:59:15;25.73;;;22.90;;
3541;SDS011;1785;47.388;8.538;2022-08-19T05:01:42;25.33;;;22.73;;
3541;SDS011;1785;47.388;8.538;2022-08-19T05:04:09;26.70;;;21.47;;
3541;SDS011;1785;47.388;8.538;2022-08-19T05:06:35;23.13;;;20.80;;
3541;SDS011;1785;47.388;8.538;2022-08-19T05:09:02;24.97;;;22.27;;
3541;SDS011;1785;47.388;8.538;2022-08-19T05:11:31;27.83;;;23.90;;
3541;SDS011;1785;47.388;8.538;2022-08-19T05:13:59;22.67;;;20.30;;
3541;SDS011;1785;47.388;8.538;2022-08-19T05:16:26;22.60;;;20.30;;
3541;SDS011;1785;47.388;8.538;2022-08-19T05:18:53;25.63;;;22.27;;
3541;SDS011;1785;47.388;8.538;2022-08-19T05:21:40;21.37;;;19.07;;
3541;SDS011;1785;47.388;8.538;2022-08-19T05:24:25;20.20;;;18.10;;
3541;SDS011;1785;47.388;8.538;2022-08-19T05:26:53;19.33;;;17.40;;
3541;SDS011;1785;47.388;8.538;2022-08-19T05:29:22;17.87;;;16.07;;
3541;SDS011;1785;47.388;8.538;2022-08-19T05:31:51;17.37;;;15.70;;
3541;SDS011;1785;47.388;8.538;2022-08-19T05:34:19;15.67;;;13.57;;
3541;SDS011;1785;47.388;8.538;2022-08-19T05:36:49;17.23;;;15.43;;
3541;SDS011;1785;47.388;8.538;2022-08-19T05:39:17;16.90;;;15.30;;
3541;SDS011;1785;47.388;8.538;2022-08-19T05:41:46;17.10;;;14.50;;
3541;SDS011;1785;47.388;8.538;2022-08-19T05:44:14;16.07;;;14.27;;
3541;SDS011;1785;47.388;8.538;2022-08-19T05:46:42;17.13;;;15.40;;
3541;SDS011;1785;47.388;8.538;2022-08-19T05:49:12;15.93;;;14.10;;
3541;SDS011;1785;47.388;8.538;2022-08-19T05:51:40;17.23;;;15.43;;
3541;SDS011;1785;47.388;8.538;2022-08-19T05:54:08;14.80;;;13.40;;
3541;SDS011;1785;47.388;8.538;2022-08-19T05:56:36;15.97;;;14.37;;
3541;SDS011;1785;47.388;8.538;2022-08-19T05:59:03;15.53;;;14.07;;
3541;SDS011;1785;47.388;8.538;2022-08-19T06:01:33;15.63;;;14.03;;
3541;SDS011;1785;47.388;8.538;2022-08-19T06:04:00;15.47;;;14.07;;
3541;SDS011;1785;47.388;8.538;2022-08-19T06:06:26;15.53;;;14.03;;
3541;SDS011;1785;47.388;8.538;2022-08-19T06:08:53;17.53;;;15.77;;
3541;SDS011;1785;47.388;8.538;2022-08-19T06:11:20;16.60;;;14.87;;
3541;SDS011;1785;47.388;8.538;2022-08-19T06:13:48;17.40;;;15.70;;
3541;SDS011;1785;47.388;8.538;2022-08-19T06:16:17;17.43;;;15.57;;
3541;SDS011;1785;47.388;8.538;2022-08-19T06:18:47;19.13;;;15.23;;
3541;SDS011;1785;47.388;8.538;2022-08-19T06:21:15;16.50;;;14.90;;
3541;SDS011;1785;47.388;8.538;2022-08-19T06:23:41;16.70;;;15.10;;
3541;SDS011;1785;47.388;8.538;2022-08-19T06:26:10;17.40;;;15.67;;
3541;SDS011;1785;47.388;8.538;2022-08-19T06:28:38;18.13;;;16.43;;
3541;SDS011;1785;47.388;8.538;2022-08-19T06:31:08;26.87;;;24.23;;
3541;SDS011;1785;47.388;8.538;2022-08-19T06:33:35;19.00;;;17.13;;
3541;SDS011;1785;47.388;8.538;2022-08-19T06:36:02;17.53;;;15.73;;
3541;SDS011;1785;47.388;8.538;2022-08-19T06:38:29;17.83;;;16.23;;
3541;SDS011;1785;47.388;8.538;2022-08-19T06:41:00;18.10;;;16.13;;
3541;SDS011;1785;47.388;8.538;2022-08-19T06:43:27;18.97;;;16.93;;
3541;SDS011;1785;47.388;8.538;2022-08-19T06:45:53;18.60;;;16.30;;
3541;SDS011;1785;47.388;8.538;2022-08-19T06:48:20;18.70;;;16.80;;
3541;SDS011;1785;47.388;8.538;2022-08-19T06:50:46;19.73;;;17.83;;
3541;SDS011;1785;47.388;8.538;2022-08-19T06:53:15;18.13;;;16.37;;
3541;SDS011;1785;47.388;8.538;2022-08-19T06:55:42;16.63;;;14.97;;
3541;SDS011;1785;47.388;8.538;2022-08-19T06:58:08;19.23;;;17.40;;
3541;SDS011;1785;47.388;8.538;2022-08-19T07:00:35;18.80;;;15.97;;
3541;SDS011;1785;47.388;8.538;2022-08-19T07:03:03;17.67;;;14.70;;
3541;SDS011;1785;47.388;8.538;2022-08-19T07:05:29;17.47;;;15.70;;
3541;SDS011;1785;47.388;8.538;2022-08-19T07:07:55;17.87;;;16.17;;
3541;SDS011;1785;47.388;8.538;2022-08-19T07:10:22;16.30;;;14.67;;
3541;SDS011;1785;47.388;8.538;2022-08-19T07:12:50;15.37;;;13.87;;
3541;SDS011;1785;47.388;8.538;2022-08-19T07:15:16;16.77;;;15.17;;
3541;SDS011;1785;47.388;8.538;2022-08-19T07:17:43;17.20;;;15.53;;
3541;SDS011;1785;47.388;8.538;2022-08-19T07:20:11;17.30;;;15.60;;
3541;SDS011;1785;47.388;8.538;2022-08-19T07:22:38;16.20;;;14.60;;
3541;SDS011;1785;47.388;8.538;2022-08-19T07:25:06;16.07;;;14.53;;
3541;SDS011;1785;47.388;8.538;2022-08-19T07:27:33;17.00;;;15.40;;
3541;SDS011;1785;47.388;8.538;2022-08-19T07:30:00;16.47;;;14.97;;
3541;SDS011;1785;47.388;8.538;2022-08-19T07:32:27;16.63;;;15.13;;
3541;SDS011;1785;47.388;8.538;2022-08-19T07:34:55;17.37;;;15.77;;
3541;SDS011;1785;47.388;8.538;2022-08-19T07:37:23;16.23;;;14.53;;
3541;SDS011;1785;47.388;8.538;2022-08-19T07:39:51;15.93;;;14.50;;
3541;SDS011;1785;47.388;8.538;2022-08-19T07:42:18;16.90;;;15.30;;
3541;SDS011;1785;47.388;8.538;2022-08-19T07:44:46;16.67;;;15.10;;
3541;SDS011;1785;47.388;8.538;2022-08-19T07:47:12;18.20;;;16.30;;
3541;SDS011;1785;47.388;8.538;2022-08-19T07:49:40;16.30;;;14.90;;
3541;SDS011;1785;47.388;8.538;2022-08-19T07:52:07;18.07;;;16.17;;
3541;SDS011;1785;47.388;8.538;2022-08-19T07:54:39;18.83;;;17.03;;
3541;SDS011;1785;47.388;8.538;2022-08-19T07:57:06;20.23;;;17.27;;
3541;SDS011;1785;47.388;8.538;2022-08-19T07:59:32;17.75;;;15.95;;
3541;SDS011;1785;47.388;8.538;2022-08-19T08:01:59;17.63;;;15.83;;
3541;SDS011;1785;47.388;8.538;2022-08-19T08:04:27;18.07;;;16.27;;
3541;SDS011;1785;47.388;8.538;2022-08-19T08:07:12;20.47;;;17.80;;
3541;SDS011;1785;47.388;8.538;2022-08-19T08:09:58;21.50;;;16.03;;
3541;SDS011;1785;47.388;8.538;2022-08-19T08:12:25;18.43;;;16.53;;
3541;SDS011;1785;47.388;8.538;2022-08-19T08:14:55;17.73;;;16.03;;
3541;SDS011;1785;47.388;8.538;2022-08-19T08:17:27;19.37;;;16.97;;
3541;SDS011;1785;47.388;8.538;2022-08-19T08:19:54;19.60;;;16.60;;
3541;SDS011;1785;47.388;8.538;2022-08-19T08:22:21;17.77;;;15.97;;
3541;SDS011;1785;47.388;8.538;2022-08-19T08:25:09;18.40;;;16.40;;
3541;SDS011;1785;47.388;8.538;2022-08-19T08:27:38;19.73;;;17.73;;
3541;SDS011;1785;47.388;8.538;2022-08-19T08:30:06;19.23;;;17.23;;
3541;SDS011;1785;47.388;8.538;2022-08-19T08:32:34;20.97;;;18.93;;
3541;SDS011;1785;47.388;8.538;2022-08-19T08:35:01;21.23;;;19.17;;
3541;SDS011;1785;47.388;8.538;2022-08-19T08:37:28;20.00;;;17.93;;
3541;SDS011;1785;47.388;8.538;2022-08-19T08:39:55;19.10;;;17.20;;
3541;SDS011;1785;47.388;8.538;2022-08-19T08:42:24;21.53;;;18.67;;
3541;SDS011;1785;47.388;8.538;2022-08-19T08:44:56;22.03;;;18.73;;
3541;SDS011;1785;47.388;8.538;2022-08-19T08:47:26;22.97;;;20.63;;
3541;SDS011;1785;47.388;8.538;2022-08-19T08:49:59;23.10;;;20.80;;
3541;SDS011;1785;47.388;8.538;2022-08-19T08:52:29;24.20;;;20.30;;
3541;SDS011;1785;47.388;8.538;2022-08-19T08:55:08;21.53;;;19.50;;
3541;SDS011;1785;47.388;8.538;2022-08-19T08:57:39;22.43;;;20.13;;
3541;SDS011;1785;47.388;8.538;2022-08-19T09:00:11;20.57;;;18.57;;
3541;SDS011;1785;47.388;8.538;2022-08-19T09:02:42;21.30;;;19.00;;
3541;SDS011;1785;47.388;8.538;2022-08-19T09:05:09;23.33;;;20.83;;
3541;SDS011;1785;47.388;8.538;2022-08-19T09:07:40;27.93;;;20.30;;
3541;SDS011;1785;47.388;8.538;2022-08-19T09:10:13;23.47;;;21.00;;
3541;SDS011;1785;47.388;8.538;2022-08-19T09:12:57;23.53;;;21.13;;
3541;SDS011;1785;47.388;8.538;2022-08-19T09:15:36;23.93;;;21.20;;
3541;SDS011;1785;47.388;8.538;2022-08-19T09:18:08;23.63;;;21.13;;
3541;SDS011;1785;47.388;8.538;2022-08-19T09:20:34;24.10;;;21.83;;
3541;SDS011;1785;47.388;8.538;2022-08-19T09:23:01;24.53;;;21.67;;
3541;SDS011;1785;47.388;8.538;2022-08-19T09:25:27;23.97;;;21.57;;
3541;SDS011;1785;47.388;8.538;2022-08-19T09:27:56;28.77;;;23.63;;
3541;SDS011;1785;47.388;8.538;2022-08-19T09:30:28;24.53;;;22.03;;
3541;SDS011;1785;47.388;8.538;2022-08-19T09:32:56;25.97;;;22.80;;
3541;SDS011;1785;47.388;8.538;2022-08-19T09:35:24;25.07;;;22.47;;
3541;SDS011;1785;47.388;8.538;2022-08-19T09:37:55;24.70;;;22.20;;
3541;SDS011;1785;47.388;8.538;2022-08-19T09:40:22;25.20;;;22.80;;
3541;SDS011;1785;47.388;8.538;2022-08-19T09:42:49;24.13;;;21.73;;
3541;SDS011;1785;47.388;8.538;2022-08-19T09:45:19;26.77;;;23.57;;
3541;SDS011;1785;47.388;8.538;2022-08-19T09:47:47;29.93;;;24.80;;
3541;SDS011;1785;47.388;8.538;2022-08-19T09:50:15;26.07;;;23.40;;
3541;SDS011;1785;47.388;8.538;2022-08-19T09:52:43;26.43;;;23.73;;
3541;SDS011;1785;47.388;8.538;2022-08-19T09:55:09;28.57;;;25.57;;
3541;SDS011;1785;47.388;8.538;2022-08-19T09:57:36;27.90;;;24.90;;
3541;SDS011;1785;47.388;8.538;2022-08-19T10:00:05;28.43;;;25.37;;
3541;SDS011;1785;47.388;8.538;2022-08-19T10:02:37;25.90;;;23.13;;
3541;SDS011;1785;47.388;8.538;2022-08-19T10:05:03;29.47;;;23.67;;
3541;SDS011;1785;47.388;8.538;2022-08-19T10:07:48;26.30;;;23.43;;
3541;SDS011;1785;47.388;8.538;2022-08-19T10:10:16;26.83;;;23.97;;
3541;SDS011;1785;47.388;8.538;2022-08-19T10:12:42;27.33;;;24.33;;
3541;SDS011;1785;47.388;8.538;2022-08-19T10:15:12;34.43;;;26.50;;
3541;SDS011;1785;47.388;8.538;2022-08-19T10:17:40;28.60;;;25.50;;
3541;SDS011;1785;47.388;8.538;2022-08-19T10:20:07;31.90;;;27.23;;
3541;SDS011;1785;47.388;8.538;2022-08-19T10:22:34;29.03;;;26.17;;
3541;SDS011;1785;47.388;8.538;2022-08-19T10:25:02;29.93;;;26.73;;
3541;SDS011;1785;47.388;8.538;2022-08-19T10:27:30;28.63;;;25.07;;
3541;SDS011;1785;47.388;8.538;2022-08-19T10:29:57;29.10;;;25.73;;
3541;SDS011;1785;47.388;8.538;2022-08-19T10:32:24;29.70;;;26.20;;
3541;SDS011;1785;47.388;8.538;2022-08-19T10:34:51;32.33;;;29.10;;
3541;SDS011;1785;47.388;8.538;2022-08-19T10:37:18;33.43;;;27.83;;
3541;SDS011;1785;47.388;8.538;2022-08-19T10:39:45;29.23;;;25.53;;
3541;SDS011;1785;47.388;8.538;2022-08-19T10:42:12;28.13;;;24.90;;
3541;SDS011;1785;47.388;8.538;2022-08-19T10:44:40;34.53;;;27.80;;
3541;SDS011;1785;47.388;8.538;2022-08-19T10:47:07;32.10;;;28.80;;
3541;SDS011;1785;47.388;8.538;2022-08-19T10:49:34;32.10;;;28.10;;
3541;SDS011;1785;47.388;8.538;2022-08-19T10:52:21;30.83;;;27.03;;
3541;SDS011;1785;47.388;8.538;2022-08-19T10:55:00;30.70;;;27.40;;
3541;SDS011;1785;47.388;8.538;2022-08-19T10:57:44;31.57;;;28.13;;
3541;SDS011;1785;47.388;8.538;2022-08-19T11:00:11;33.07;;;29.50;;
3541;SDS011;1785;47.388;8.538;2022-08-19T11:02:38;33.73;;;30.00;;
3541;SDS011;1785;47.388;8.538;2022-08-19T11:05:05;32.20;;;28.60;;
3541;SDS011;1785;47.388;8.538;2022-08-19T11:07:35;33.47;;;27.87;;
3541;SDS011;1785;47.388;8.538;2022-08-19T11:10:02;35.57;;;29.47;;
3541;SDS011;1785;47.388;8.538;2022-08-19T11:12:29;32.00;;;28.57;;
3541;SDS011;1785;47.388;8.538;2022-08-19T11:14:56;30.73;;;27.43;;
3541;SDS011;1785;47.388;8.538;2022-08-19T11:17:22;33.30;;;29.37;;
3541;SDS011;1785;47.388;8.538;2022-08-19T11:19:49;30.63;;;27.47;;
3541;SDS011;1785;47.388;8.538;2022-08-19T11:22:16;33.50;;;28.50;;
3541;SDS011;1785;47.388;8.538;2022-08-19T11:24:43;30.85;;;27.55;;
3541;SDS011;1785;47.388;8.538;2022-08-19T11:27:10;30.63;;;27.30;;
3541;SDS011;1785;47.388;8.538;2022-08-19T11:29:37;37.27;;;28.33;;
3541;SDS011;1785;47.388;8.538;2022-08-19T11:32:04;31.90;;;28.63;;
3541;SDS011;1785;47.388;8.538;2022-08-19T11:34:34;34.03;;;27.57;;
3541;SDS011;1785;47.388;8.538;2022-08-19T11:37:01;34.90;;;28.07;;
3541;SDS011;1785;47.388;8.538;2022-08-19T11:39:30;31.37;;;26.70;;
3541;SDS011;1785;47.388;8.538;2022-08-19T11:41:58;31.20;;;27.90;;
3541;SDS011;1785;47.388;8.538;2022-08-19T11:44:24;35.83;;;28.70;;
3541;SDS011;1785;47.388;8.538;2022-08-19T11:46:53;31.37;;;28.10;;
3541;SDS011;1785;47.388;8.538;2022-08-19T11:49:20;35.53;;;28.57;;
3541;SDS011;1785;47.388;8.538;2022-08-19T11:51:47;31.63;;;27.80;;
3541;SDS011;1785;47.388;8.538;2022-08-19T11:54:15;31.90;;;28.57;;
3541;SDS011;1785;47.388;8.538;2022-08-19T11:56:42;30.37;;;27.10;;
3541;SDS011;1785;47.388;8.538;2022-08-19T11:59:10;28.43;;;25.47;;
3541;SDS011;1785;47.388;8.538;2022-08-19T12:01:36;32.60;;;29.10;;
3541;SDS011;1785;47.388;8.538;2022-08-19T12:04:05;30.23;;;26.97;;
3541;SDS011;1785;47.388;8.538;2022-08-19T12:06:32;30.33;;;25.60;;
3541;SDS011;1785;47.388;8.538;2022-08-19T12:09:01;30.90;;;27.63;;
3541;SDS011;1785;47.388;8.538;2022-08-19T12:11:29;29.30;;;25.47;;
3541;SDS011;1785;47.388;8.538;2022-08-19T12:13:55;33.13;;;29.53;;
3541;SDS011;1785;47.388;8.538;2022-08-19T12:16:24;32.27;;;28.47;;
3541;SDS011;1785;47.388;8.538;2022-08-19T12:18:53;32.00;;;27.17;;
3541;SDS011;1785;47.388;8.538;2022-08-19T12:21:21;34.43;;;30.73;;
3541;SDS011;1785;47.388;8.538;2022-08-19T12:23:50;34.03;;;29.30;;
3541;SDS011;1785;47.388;8.538;2022-08-19T12:26:16;32.80;;;27.27;;
3541;SDS011;1785;47.388;8.538;2022-08-19T12:28:43;32.60;;;27.90;;
3541;SDS011;1785;47.388;8.538;2022-08-19T12:31:11;34.67;;;27.17;;
3541;SDS011;1785;47.388;8.538;2022-08-19T12:33:38;28.90;;;25.20;;
3541;SDS011;1785;47.388;8.538;2022-08-19T12:36:05;30.47;;;26.80;;
3541;SDS011;1785;47.388;8.538;2022-08-19T12:38:33;31.37;;;27.40;;
3541;SDS011;1785;47.388;8.538;2022-08-19T12:41:00;30.40;;;25.87;;
3541;SDS011;1785;47.388;8.538;2022-08-19T12:43:31;29.23;;;26.03;;
3541;SDS011;1785;47.388;8.538;2022-08-19T12:45:57;35.67;;;27.90;;
3541;SDS011;1785;47.388;8.538;2022-08-19T12:48:24;29.43;;;26.23;;
3541;SDS011;1785;47.388;8.538;2022-08-19T12:50:51;34.57;;;28.80;;
3541;SDS011;1785;47.388;8.538;2022-08-19T12:53:17;30.43;;;27.20;;
3541;SDS011;1785;47.388;8.538;2022-08-19T12:55:44;28.30;;;25.30;;
3541;SDS011;1785;47.388;8.538;2022-08-19T12:58:10;31.00;;;26.63;;
3541;SDS011;1785;47.388;8.538;2022-08-19T13:00:46;32.87;;;28.40;;
3541;SDS011;1785;47.388;8.538;2022-08-19T13:03:14;28.83;;;25.80;;
3541;SDS011;1785;47.388;8.538;2022-08-19T13:05:40;29.33;;;26.07;;
3541;SDS011;1785;47.388;8.538;2022-08-19T13:08:08;27.60;;;24.80;;
3541;SDS011;1785;47.388;8.538;2022-08-19T13:10:35;30.57;;;27.27;;
3541;SDS011;1785;47.388;8.538;2022-08-19T13:13:04;30.60;;;26.63;;
3541;SDS011;1785;47.388;8.538;2022-08-19T13:15:35;31.33;;;27.77;;
3541;SDS011;1785;47.388;8.538;2022-08-19T13:18:02;29.10;;;25.93;;
3541;SDS011;1785;47.388;8.538;2022-08-19T13:20:29;27.87;;;24.97;;
3541;SDS011;1785;47.388;8.538;2022-08-19T13:22:55;29.52;;;25.98;;
3541;SDS011;1785;47.388;8.538;2022-08-19T13:25:24;31.07;;;26.13;;
3541;SDS011;1785;47.388;8.538;2022-08-19T13:27:50;30.57;;;27.20;;
3541;SDS011;1785;47.388;8.538;2022-08-19T13:30:17;29.90;;;25.20;;
3541;SDS011;1785;47.388;8.538;2022-08-19T13:33:04;29.00;;;25.90;;
3541;SDS011;1785;47.388;8.538;2022-08-19T13:35:37;31.40;;;27.70;;
3541;SDS011;1785;47.388;8.538;2022-08-19T13:38:04;30.90;;;26.40;;
3541;SDS011;1785;47.388;8.538;2022-08-19T13:40:31;28.50;;;25.13;;
3541;SDS011;1785;47.388;8.538;2022-08-19T13:43:00;30.73;;;27.42;;
3541;SDS011;1785;47.388;8.538;2022-08-19T13:45:27;27.97;;;25.07;;
3541;SDS011;1785;47.388;8.538;2022-08-19T13:47:56;29.87;;;26.67;;
3541;SDS011;1785;47.388;8.538;2022-08-19T13:50:23;31.63;;;26.23;;
3541;SDS011;1785;47.388;8.538;2022-08-19T13:52:51;29.20;;;25.97;;
3541;SDS011;1785;47.388;8.538;2022-08-19T13:55:18;28.20;;;23.97;;
3541;SDS011;1785;47.388;8.538;2022-08-19T13:57:45;27.10;;;24.20;;
3541;SDS011;1785;47.388;8.538;2022-08-19T14:00:16;27.17;;;24.37;;
3541;SDS011;1785;47.388;8.538;2022-08-19T14:02:43;32.47;;;24.47;;
3541;SDS011;1785;47.388;8.538;2022-08-19T14:05:12;28.83;;;25.83;;
3541;SDS011;1785;47.388;8.538;2022-08-19T14:07:40;30.23;;;26.33;;
3541;SDS011;1785;47.388;8.538;2022-08-19T14:10:08;27.43;;;24.57;;
3541;SDS011;1785;47.388;8.538;2022-08-19T14:12:37;27.63;;;24.60;;
3541;SDS011;1785;47.388;8.538;2022-08-19T14:15:06;28.60;;;25.40;;
3541;SDS011;1785;47.388;8.538;2022-08-19T14:17:36;30.73;;;26.43;;
3541;SDS011;1785;47.388;8.538;2022-08-19T14:20:04;30.20;;;26.13;;
3541;SDS011;1785;47.388;8.538;2022-08-19T14:22:33;29.43;;;26.23;;
3541;SDS011;1785;47.388;8.538;2022-08-19T14:25:00;28.00;;;25.10;;
3541;SDS011;1785;47.388;8.538;2022-08-19T14:27:26;28.60;;;25.60;;
3541;SDS011;1785;47.388;8.538;2022-08-19T14:29:53;32.07;;;25.67;;
3541;SDS011;1785;47.388;8.538;2022-08-19T14:32:21;30.77;;;27.07;;
3541;SDS011;1785;47.388;8.538;2022-08-19T14:34:47;30.40;;;25.83;;
3541;SDS011;1785;47.388;8.538;2022-08-19T14:37:14;29.70;;;24.83;;
3541;SDS011;1785;47.388;8.538;2022-08-19T14:39:40;27.17;;;24.27;;
3541;SDS011;1785;47.388;8.538;2022-08-19T14:42:07;27.40;;;23.30;;
3541;SDS011;1785;47.388;8.538;2022-08-19T14:44:35;25.50;;;22.80;;
3541;SDS011;1785;47.388;8.538;2022-08-19T14:47:02;28.93;;;25.90;;
3541;SDS011;1785;47.388;8.538;2022-08-19T14:49:29;28.87;;;24.63;;
3541;SDS011;1785;47.388;8.538;2022-08-19T14:51:56;28.87;;;25.50;;
3541;SDS011;1785;47.388;8.538;2022-08-19T14:54:22;31.60;;;26.93;;